createdAt,value
2023-12-14T00:00:55.040Z,972.35
2023-12-14T00:01:55.449Z,972.33
2023-12-14T00:02:54.982Z,972.36
2023-12-14T00:03:55.100Z,972.37
2023-12-14T00:04:55.038Z,972.42
2023-12-14T00:05:54.997Z,972.40
2023-12-14T00:06:54.944Z,972.44
2023-12-14T00:07:54.974Z,972.41
2023-12-14T00:08:54.924Z,972.46
2023-12-14T00:09:54.916Z,972.45
2023-12-14T00:10:54.960Z,972.44
2023-12-14T00:11:54.885Z,972.43
2023-12-14T00:12:55.875Z,972.44
2023-12-14T00:13:55.216Z,972.54
2023-12-14T00:14:54.985Z,972.57
2023-12-14T00:15:54.846Z,972.60
2023-12-14T00:16:54.896Z,972.64
2023-12-14T00:17:54.861Z,972.62
2023-12-14T00:18:54.854Z,972.61
2023-12-14T00:19:54.819Z,972.61
2023-12-14T00:20:54.808Z,972.63
2023-12-14T00:21:54.822Z,972.63
2023-12-14T00:22:54.840Z,972.72
2023-12-14T00:23:54.800Z,972.72
2023-12-14T00:24:54.749Z,972.70
2023-12-14T00:25:54.784Z,972.76
2023-12-14T00:26:54.720Z,972.69
2023-12-14T00:27:54.720Z,972.71
2023-12-14T00:29:01.014Z,972.66
2023-12-14T00:29:55.708Z,972.69
2023-12-14T00:30:54.715Z,972.72
2023-12-14T00:31:55.627Z,972.70
2023-12-14T00:32:54.778Z,972.77
2023-12-14T00:33:55.641Z,972.77
2023-12-14T00:34:54.794Z,972.77
2023-12-14T00:35:54.671Z,972.86
2023-12-14T00:36:54.616Z,972.86
2023-12-14T00:37:54.639Z,972.87
2023-12-14T00:38:54.619Z,972.94
2023-12-14T00:39:54.585Z,972.89
2023-12-14T00:40:54.662Z,972.96
2023-12-14T00:41:54.572Z,973.00
2023-12-14T00:42:54.557Z,972.95
2023-12-14T00:43:54.571Z,972.98
2023-12-14T00:44:54.546Z,972.98
2023-12-14T00:45:54.526Z,972.98
2023-12-14T00:46:54.522Z,973.01
2023-12-14T00:47:54.580Z,973.00
2023-12-14T00:48:54.537Z,973.01
2023-12-14T00:49:54.478Z,973.05
2023-12-14T00:50:54.475Z,973.00
2023-12-14T00:51:54.480Z,973.03
2023-12-14T00:52:54.737Z,973.02
2023-12-14T00:53:54.709Z,973.06
2023-12-14T00:54:54.436Z,973.08
2023-12-14T00:55:54.465Z,973.12
2023-12-14T00:56:54.412Z,973.12
2023-12-14T00:57:54.393Z,973.12
2023-12-14T00:58:54.481Z,973.16
2023-12-14T00:59:54.496Z,973.17
2023-12-14T01:00:54.397Z,973.20
2023-12-14T01:01:54.355Z,973.24
2023-12-14T01:02:54.352Z,973.22
2023-12-14T01:03:54.336Z,973.26
2023-12-14T01:04:54.328Z,973.28
2023-12-14T01:05:54.350Z,973.30
2023-12-14T01:06:54.310Z,973.32
2023-12-14T01:07:54.309Z,973.29
2023-12-14T01:08:54.328Z,973.31
2023-12-14T01:09:54.240Z,973.37
2023-12-14T01:10:54.334Z,973.39
2023-12-14T01:11:54.247Z,973.37
2023-12-14T01:12:54.226Z,973.37
2023-12-14T01:13:54.279Z,973.47
2023-12-14T01:14:54.311Z,973.44
2023-12-14T01:15:54.183Z,973.47
2023-12-14T01:16:54.288Z,973.49
2023-12-14T01:17:54.236Z,973.50
2023-12-14T01:18:55.093Z,973.50
2023-12-14T01:19:54.161Z,973.56
2023-12-14T01:20:54.186Z,973.58
2023-12-14T01:21:54.146Z,973.54
2023-12-14T01:22:54.191Z,973.58
2023-12-14T01:23:54.143Z,973.55
2023-12-14T01:24:54.114Z,973.60
2023-12-14T01:25:54.136Z,973.60
2023-12-14T01:26:54.070Z,973.64
2023-12-14T01:27:54.064Z,973.65
2023-12-14T01:28:54.119Z,973.62
2023-12-14T01:29:54.043Z,973.67
2023-12-14T01:30:54.128Z,973.65
2023-12-14T01:31:54.043Z,973.70
2023-12-14T01:32:54.074Z,973.67
2023-12-14T01:33:54.100Z,973.72
2023-12-14T01:34:54.068Z,973.70
2023-12-14T01:35:54.075Z,973.73
2023-12-14T01:36:53.983Z,973.72
2023-12-14T01:37:54.066Z,973.77
2023-12-14T01:38:53.949Z,973.69
2023-12-14T01:39:53.957Z,973.76
2023-12-14T01:40:54.019Z,973.74
2023-12-14T01:41:53.948Z,973.80
2023-12-14T01:42:53.894Z,973.86
2023-12-14T01:43:53.905Z,973.84
2023-12-14T01:44:53.895Z,973.88
2023-12-14T01:45:53.862Z,973.84
2023-12-14T01:46:53.889Z,973.88
2023-12-14T01:47:53.941Z,973.89
2023-12-14T01:48:53.909Z,973.94
2023-12-14T01:49:53.865Z,973.99
2023-12-14T01:50:53.817Z,974.03
2023-12-14T01:51:53.791Z,973.99
2023-12-14T01:52:53.826Z,974.06
2023-12-14T01:53:53.873Z,974.12
2023-12-14T01:54:54.509Z,974.11
2023-12-14T01:55:54.680Z,974.13
2023-12-14T01:56:53.762Z,974.13
2023-12-14T01:57:53.727Z,974.16
2023-12-14T01:58:53.785Z,974.18
2023-12-14T01:59:53.754Z,974.15
2023-12-14T02:00:53.758Z,974.15
2023-12-14T02:01:53.744Z,974.16
2023-12-14T02:02:53.762Z,974.19
2023-12-14T02:03:53.735Z,974.18
2023-12-14T02:04:53.698Z,974.20
2023-12-14T02:05:53.697Z,974.19
2023-12-14T02:06:53.641Z,974.18
2023-12-14T02:07:53.656Z,974.18
2023-12-14T02:08:53.631Z,974.23
2023-12-14T02:09:53.605Z,974.25
2023-12-14T02:10:53.692Z,974.28
2023-12-14T02:11:53.602Z,974.30
2023-12-14T02:12:53.613Z,974.33
2023-12-14T02:13:53.600Z,974.39
2023-12-14T02:14:53.577Z,974.37
2023-12-14T02:15:53.608Z,974.39
2023-12-14T02:16:53.633Z,974.41
2023-12-14T02:17:53.636Z,974.42
2023-12-14T02:18:53.530Z,974.42
2023-12-14T02:19:53.590Z,974.44
2023-12-14T02:20:53.505Z,974.42
2023-12-14T02:21:53.469Z,974.38
2023-12-14T02:22:53.621Z,974.42
2023-12-14T02:23:53.459Z,974.42
2023-12-14T02:24:53.447Z,974.46
2023-12-14T02:25:53.471Z,974.43
2023-12-14T02:27:02.563Z,974.43
2023-12-14T02:27:54.433Z,974.44
2023-12-14T02:28:53.454Z,974.46
2023-12-14T02:29:53.397Z,974.47
2023-12-14T02:30:53.452Z,974.49
2023-12-14T02:31:53.381Z,974.50
2023-12-14T02:32:53.408Z,974.52
2023-12-14T02:33:53.382Z,974.52
2023-12-14T02:34:53.373Z,974.52
2023-12-14T02:35:54.148Z,974.50
2023-12-14T02:36:53.581Z,974.52
2023-12-14T02:37:53.359Z,974.52
2023-12-14T02:38:53.427Z,974.54
2023-12-14T02:39:53.271Z,974.54
2023-12-14T02:40:53.315Z,974.58
2023-12-14T02:41:53.275Z,974.57
2023-12-14T02:42:53.288Z,974.61
2023-12-14T02:43:53.274Z,974.60
2023-12-14T02:44:53.222Z,974.61
2023-12-14T02:45:53.241Z,974.62
2023-12-14T02:46:53.244Z,974.68
2023-12-14T02:47:53.239Z,974.69
2023-12-14T02:48:53.194Z,974.70
2023-12-14T02:49:53.170Z,974.73
2023-12-14T02:50:53.191Z,974.74
2023-12-14T02:51:53.143Z,974.77
2023-12-14T02:52:53.171Z,974.75
2023-12-14T02:53:53.116Z,974.75
2023-12-14T02:54:53.096Z,974.77
2023-12-14T02:55:53.178Z,974.77
2023-12-14T02:56:53.097Z,974.74
2023-12-14T02:57:53.077Z,974.80
2023-12-14T02:58:53.082Z,974.80
2023-12-14T02:59:53.075Z,974.78
2023-12-14T03:00:53.052Z,974.81
2023-12-14T03:01:53.040Z,974.87
2023-12-14T03:02:53.007Z,974.84
2023-12-14T03:03:53.125Z,974.96
2023-12-14T03:04:52.987Z,974.94
2023-12-14T03:05:53.040Z,974.96
2023-12-14T03:06:53.019Z,974.97
2023-12-14T03:07:52.975Z,974.96
2023-12-14T03:08:52.939Z,974.95
2023-12-14T03:09:52.923Z,974.99
2023-12-14T03:10:53.021Z,974.98
2023-12-14T03:11:52.894Z,974.99
2023-12-14T03:12:52.897Z,975.00
2023-12-14T03:13:52.946Z,975.02
2023-12-14T03:14:52.872Z,975.10
2023-12-14T03:15:52.900Z,975.11
2023-12-14T03:16:52.899Z,975.15
2023-12-14T03:17:53.561Z,975.14
2023-12-14T03:18:52.882Z,975.13
2023-12-14T03:19:52.812Z,975.15
2023-12-14T03:20:52.839Z,975.13
2023-12-14T03:21:52.797Z,975.15
2023-12-14T03:22:52.810Z,975.16
2023-12-14T03:23:52.760Z,975.14
2023-12-14T03:24:52.815Z,975.19
2023-12-14T03:25:52.783Z,975.17
2023-12-14T03:26:52.727Z,975.21
2023-12-14T03:27:52.775Z,975.23
2023-12-14T03:28:52.728Z,975.23
2023-12-14T03:29:52.696Z,975.26
2023-12-14T03:30:52.727Z,975.33
2023-12-14T03:31:52.753Z,975.30
2023-12-14T03:32:52.730Z,975.30
2023-12-14T03:33:52.756Z,975.29
2023-12-14T03:34:52.714Z,975.35
2023-12-14T03:35:52.645Z,975.35
2023-12-14T03:36:53.362Z,975.34
2023-12-14T03:37:53.587Z,975.37
2023-12-14T03:38:52.627Z,975.34
2023-12-14T03:39:52.622Z,975.36
2023-12-14T03:40:52.628Z,975.34
2023-12-14T03:41:52.582Z,975.33
2023-12-14T03:42:52.599Z,975.38
2023-12-14T03:43:52.579Z,975.38
2023-12-14T03:44:52.555Z,975.39
2023-12-14T03:45:52.564Z,975.38
2023-12-14T03:46:52.602Z,975.43
2023-12-14T03:47:52.687Z,975.46
2023-12-14T03:48:52.514Z,975.42
2023-12-14T03:49:52.554Z,975.47
2023-12-14T03:50:52.524Z,975.43
2023-12-14T03:51:52.506Z,975.44
2023-12-14T03:52:52.502Z,975.41
2023-12-14T03:53:52.442Z,975.42
2023-12-14T03:54:52.429Z,975.44
2023-12-14T03:55:52.437Z,975.46
2023-12-14T03:56:53.205Z,975.44
2023-12-14T03:57:53.169Z,975.49
2023-12-14T03:58:53.239Z,975.52
2023-12-14T03:59:52.396Z,975.54
2023-12-14T04:00:52.434Z,975.53
2023-12-14T04:01:52.410Z,975.56
2023-12-14T04:02:52.471Z,975.55
2023-12-14T04:03:52.331Z,975.61
2023-12-14T04:04:52.414Z,975.61
2023-12-14T04:05:52.405Z,975.58
2023-12-14T04:06:52.368Z,975.61
2023-12-14T04:07:52.368Z,975.65
2023-12-14T04:08:52.289Z,975.67
2023-12-14T04:09:52.267Z,975.71
2023-12-14T04:10:52.275Z,975.72
2023-12-14T04:11:52.235Z,975.72
2023-12-14T04:12:52.246Z,975.70
2023-12-14T04:13:52.250Z,975.74
2023-12-14T04:14:52.211Z,975.76
2023-12-14T04:15:52.212Z,975.79
2023-12-14T04:16:52.248Z,975.78
2023-12-14T04:17:52.245Z,975.78
2023-12-14T04:18:53.127Z,975.82
2023-12-14T04:19:52.194Z,975.83
2023-12-14T04:20:52.176Z,975.83
2023-12-14T04:21:52.183Z,975.82
2023-12-14T04:22:52.227Z,975.90
2023-12-14T04:23:52.133Z,975.90
2023-12-14T04:24:52.096Z,975.91
2023-12-14T04:25:52.193Z,975.96
2023-12-14T04:26:52.087Z,975.99
2023-12-14T04:27:52.080Z,975.98
2023-12-14T04:28:52.145Z,976.00
2023-12-14T04:29:52.055Z,976.02
2023-12-14T04:30:52.068Z,976.05
2023-12-14T04:31:52.135Z,976.10
2023-12-14T04:32:52.097Z,976.14
2023-12-14T04:33:52.151Z,976.14
2023-12-14T04:34:52.087Z,976.19
2023-12-14T04:35:52.024Z,976.13
2023-12-14T04:36:51.985Z,976.15
2023-12-14T04:37:52.081Z,976.14
2023-12-14T04:38:52.008Z,976.15
2023-12-14T04:39:52.972Z,976.16
2023-12-14T04:40:52.018Z,976.22
2023-12-14T04:41:51.963Z,976.23
2023-12-14T04:42:51.949Z,976.26
2023-12-14T04:43:51.970Z,976.31
2023-12-14T04:44:51.976Z,976.32
2023-12-14T04:45:51.903Z,976.34
2023-12-14T04:46:51.901Z,976.35
2023-12-14T04:47:51.939Z,976.41
2023-12-14T04:48:51.853Z,976.47
2023-12-14T04:49:51.897Z,976.41
2023-12-14T04:50:51.822Z,976.46
2023-12-14T04:51:51.842Z,976.48
2023-12-14T04:52:51.820Z,976.48
2023-12-14T04:53:51.782Z,976.52
2023-12-14T04:54:51.798Z,976.46
2023-12-14T04:55:51.945Z,976.57
2023-12-14T04:56:51.749Z,976.56
2023-12-14T04:57:51.762Z,976.60
2023-12-14T04:58:52.562Z,976.56
2023-12-14T04:59:52.602Z,976.59
2023-12-14T05:00:51.756Z,976.64
2023-12-14T05:01:51.736Z,976.64
2023-12-14T05:02:51.673Z,976.63
2023-12-14T05:03:51.727Z,976.67
2023-12-14T05:04:51.702Z,976.71
2023-12-14T05:05:51.720Z,976.68
2023-12-14T05:06:52.437Z,976.74
2023-12-14T05:07:51.687Z,976.72
2023-12-14T05:08:51.632Z,976.76
2023-12-14T05:09:51.656Z,976.84
2023-12-14T05:10:51.630Z,976.78
2023-12-14T05:11:51.603Z,976.80
2023-12-14T05:12:51.579Z,976.83
2023-12-14T05:13:52.242Z,976.81
2023-12-14T05:14:51.546Z,976.85
2023-12-14T05:15:51.539Z,976.87
2023-12-14T05:16:51.905Z,976.85
2023-12-14T05:17:51.646Z,976.88
2023-12-14T05:18:51.535Z,976.88
2023-12-14T05:19:52.234Z,976.90
2023-12-14T05:20:51.493Z,976.96
2023-12-14T05:21:51.539Z,976.87
2023-12-14T05:22:51.464Z,976.90
2023-12-14T05:23:51.445Z,976.97
2023-12-14T05:24:51.460Z,976.98
2023-12-14T05:25:51.469Z,976.98
2023-12-14T05:26:51.414Z,977.05
2023-12-14T05:27:51.409Z,977.04
2023-12-14T05:28:51.415Z,977.06
2023-12-14T05:29:51.402Z,977.05
2023-12-14T05:30:51.482Z,977.11
2023-12-14T05:31:51.508Z,977.10
2023-12-14T05:32:51.421Z,977.10
2023-12-14T05:33:51.542Z,977.08
2023-12-14T05:34:51.343Z,977.08
2023-12-14T05:35:51.306Z,977.10
2023-12-14T05:36:51.321Z,977.09
2023-12-14T05:37:51.313Z,977.13
2023-12-14T05:38:52.040Z,977.15
2023-12-14T05:39:51.311Z,977.17
2023-12-14T05:40:52.108Z,977.25
2023-12-14T05:41:51.304Z,977.21
2023-12-14T05:42:51.241Z,977.19
2023-12-14T05:43:51.262Z,977.25
2023-12-14T05:44:51.257Z,977.26
2023-12-14T05:45:51.585Z,977.26
2023-12-14T05:46:51.194Z,977.29
2023-12-14T05:47:51.209Z,977.23
2023-12-14T05:48:51.175Z,977.29
2023-12-14T05:49:51.213Z,977.35
2023-12-14T05:50:51.161Z,977.34
2023-12-14T05:51:51.137Z,977.39
2023-12-14T05:52:51.125Z,977.39
2023-12-14T05:53:51.101Z,977.42
2023-12-14T05:54:51.098Z,977.48
2023-12-14T05:55:51.112Z,977.48
2023-12-14T05:56:51.091Z,977.47
2023-12-14T05:57:51.077Z,977.53
2023-12-14T05:58:51.105Z,977.56
2023-12-14T05:59:51.198Z,977.56
2023-12-14T06:00:51.897Z,977.62
2023-12-14T06:01:51.082Z,977.62
2023-12-14T06:02:51.270Z,977.63
2023-12-14T06:03:51.080Z,977.65
2023-12-14T06:04:51.031Z,977.63
2023-12-14T06:05:50.982Z,977.67
2023-12-14T06:06:51.108Z,977.65
2023-12-14T06:07:50.998Z,977.68
2023-12-14T06:08:50.936Z,977.72
2023-12-14T06:09:51.770Z,977.72
2023-12-14T06:10:51.316Z,977.74
2023-12-14T06:11:50.921Z,977.75
2023-12-14T06:12:51.103Z,977.75
2023-12-14T06:13:50.882Z,977.80
2023-12-14T06:14:50.895Z,977.79
2023-12-14T06:15:50.961Z,977.84
2023-12-14T06:16:50.875Z,977.84
2023-12-14T06:17:50.962Z,977.87
2023-12-14T06:18:51.742Z,977.92
2023-12-14T06:19:50.833Z,977.95
2023-12-14T06:20:51.608Z,977.95
2023-12-14T06:21:51.025Z,977.96
2023-12-14T06:22:50.789Z,977.98
2023-12-14T06:23:52.113Z,977.95
2023-12-14T06:24:50.764Z,977.94
2023-12-14T06:25:50.770Z,977.90
2023-12-14T06:26:51.365Z,977.94
2023-12-14T06:27:50.815Z,977.99
2023-12-14T06:28:50.766Z,977.99
2023-12-14T06:29:51.312Z,978.02
2023-12-14T06:30:50.704Z,978.06
2023-12-14T06:31:50.748Z,978.06
2023-12-14T06:32:50.751Z,978.09
2023-12-14T06:33:50.768Z,978.05
2023-12-14T06:34:50.759Z,978.09
2023-12-14T06:35:50.636Z,978.07
2023-12-14T06:36:50.706Z,978.09
2023-12-14T06:37:50.735Z,978.08
2023-12-14T06:38:50.613Z,978.13
2023-12-14T06:39:50.674Z,978.15
2023-12-14T06:40:51.399Z,978.13
2023-12-14T06:41:50.653Z,978.11
2023-12-14T06:42:50.847Z,978.09
2023-12-14T06:43:50.608Z,978.12
2023-12-14T06:44:50.578Z,978.13
2023-12-14T06:45:50.539Z,978.15
2023-12-14T06:46:50.562Z,978.19
2023-12-14T06:47:50.792Z,978.20
2023-12-14T06:48:50.622Z,978.24
2023-12-14T06:49:50.509Z,978.26
2023-12-14T06:50:50.569Z,978.30
2023-12-14T06:51:51.164Z,978.30
2023-12-14T06:52:50.482Z,978.34
2023-12-14T06:53:50.605Z,978.37
2023-12-14T06:54:50.453Z,978.38
2023-12-14T06:55:50.529Z,978.40
2023-12-14T06:56:50.441Z,978.40
2023-12-14T06:57:50.449Z,978.46
2023-12-14T06:58:50.487Z,978.52
2023-12-14T06:59:50.376Z,978.50
2023-12-14T07:00:50.657Z,978.50
2023-12-14T07:01:50.419Z,978.51
2023-12-14T07:02:50.425Z,978.55
2023-12-14T07:03:50.435Z,978.54
2023-12-14T07:04:50.351Z,978.56
2023-12-14T07:05:50.326Z,978.60
2023-12-14T07:06:50.303Z,978.60
2023-12-14T07:07:50.312Z,978.65
2023-12-14T07:08:50.291Z,978.61
2023-12-14T07:09:50.283Z,978.67
2023-12-14T07:10:50.325Z,978.73
2023-12-14T07:11:50.249Z,978.78
2023-12-14T07:12:50.271Z,978.78
2023-12-14T07:13:51.039Z,978.80
2023-12-14T07:14:50.252Z,978.86
2023-12-14T07:15:50.252Z,978.83
2023-12-14T07:16:50.200Z,978.90
2023-12-14T07:17:50.233Z,978.96
2023-12-14T07:18:50.342Z,979.01
2023-12-14T07:19:50.183Z,979.02
2023-12-14T07:20:50.248Z,978.99
2023-12-14T07:21:50.177Z,979.03
2023-12-14T07:22:50.921Z,979.08
2023-12-14T07:23:50.131Z,979.12
2023-12-14T07:24:53.216Z,979.19
2023-12-14T07:25:51.183Z,979.19
2023-12-14T07:26:50.084Z,979.24
2023-12-14T07:27:50.092Z,979.25
2023-12-14T07:28:50.071Z,979.28
2023-12-14T07:29:50.072Z,979.36
2023-12-14T07:30:50.124Z,979.38
2023-12-14T07:31:50.055Z,979.36
2023-12-14T07:32:50.075Z,979.43
2023-12-14T07:33:50.062Z,979.44
2023-12-14T07:34:50.039Z,979.43
2023-12-14T07:35:49.987Z,979.51
2023-12-14T07:36:49.964Z,979.53
2023-12-14T07:37:50.033Z,979.51
2023-12-14T07:38:51.600Z,979.55
2023-12-14T07:39:49.933Z,979.59
2023-12-14T07:40:49.941Z,979.64
2023-12-14T07:41:50.355Z,979.64
2023-12-14T07:42:50.772Z,979.64
2023-12-14T07:43:50.687Z,979.71
2023-12-14T07:44:49.912Z,979.69
2023-12-14T07:45:49.887Z,979.76
2023-12-14T07:46:49.902Z,979.77
2023-12-14T07:47:49.930Z,979.79
2023-12-14T07:48:49.939Z,979.84
2023-12-14T07:49:49.869Z,979.83
2023-12-14T07:50:49.905Z,979.84
2023-12-14T07:51:49.818Z,979.87
2023-12-14T07:52:49.804Z,979.82
2023-12-14T07:53:49.783Z,979.85
2023-12-14T07:54:49.795Z,979.85
2023-12-14T07:55:49.791Z,979.89
2023-12-14T07:56:49.867Z,979.88
2023-12-14T07:57:49.749Z,979.88
2023-12-14T07:58:49.794Z,979.91
2023-12-14T07:59:49.789Z,979.90
2023-12-14T08:00:49.736Z,979.90
2023-12-14T08:01:49.821Z,979.90
2023-12-14T08:02:50.503Z,979.96
2023-12-14T08:03:49.788Z,979.95
2023-12-14T08:04:49.759Z,979.98
2023-12-14T08:05:49.693Z,979.99
2023-12-14T08:06:49.640Z,980.01
2023-12-14T08:07:49.712Z,980.03
2023-12-14T08:08:49.627Z,980.03
2023-12-14T08:09:49.678Z,980.04
2023-12-14T08:10:49.669Z,980.06
2023-12-14T08:11:49.588Z,980.12
2023-12-14T08:12:49.581Z,980.13
2023-12-14T08:13:49.650Z,980.11
2023-12-14T08:14:49.554Z,980.16
2023-12-14T08:15:49.549Z,980.20
2023-12-14T08:16:49.549Z,980.24
2023-12-14T08:17:49.639Z,980.27
2023-12-14T08:18:49.602Z,980.25
2023-12-14T08:19:49.537Z,980.32
2023-12-14T08:20:49.554Z,980.39
2023-12-14T08:21:49.490Z,980.37
2023-12-14T08:22:49.582Z,980.37
2023-12-14T08:23:50.430Z,980.41
2023-12-14T08:24:50.344Z,980.39
2023-12-14T08:25:49.514Z,980.40
2023-12-14T08:26:49.447Z,980.41
2023-12-14T08:27:49.406Z,980.39
2023-12-14T08:28:49.514Z,980.44
2023-12-14T08:29:49.405Z,980.48
2023-12-14T08:30:49.421Z,980.50
2023-12-14T08:31:49.464Z,980.48
2023-12-14T08:32:49.462Z,980.51
2023-12-14T08:33:51.310Z,980.51
2023-12-14T08:34:49.370Z,980.51
2023-12-14T08:35:49.390Z,980.57
2023-12-14T08:36:49.359Z,980.58
2023-12-14T08:37:49.326Z,980.61
2023-12-14T08:38:49.381Z,980.65
2023-12-14T08:39:49.289Z,980.65
2023-12-14T08:40:49.303Z,980.69
2023-12-14T08:41:49.269Z,980.71
2023-12-14T08:42:49.280Z,980.72
2023-12-14T08:43:49.298Z,980.77
2023-12-14T08:44:50.057Z,980.78
2023-12-14T08:45:49.251Z,980.78
2023-12-14T08:46:49.226Z,980.80
2023-12-14T08:47:49.254Z,980.87
2023-12-14T08:48:49.205Z,980.93
2023-12-14T08:49:49.281Z,980.94
2023-12-14T08:50:49.201Z,980.98
2023-12-14T08:51:49.141Z,981.02
2023-12-14T08:52:49.159Z,981.01
2023-12-14T08:53:49.134Z,981.05
2023-12-14T08:54:49.144Z,981.10
2023-12-14T08:55:49.151Z,981.13
2023-12-14T08:56:49.109Z,981.16
2023-12-14T08:57:49.079Z,981.21
2023-12-14T08:58:49.133Z,981.19
2023-12-14T08:59:49.077Z,981.20
2023-12-14T09:00:49.085Z,981.24
2023-12-14T09:01:49.172Z,981.22
2023-12-14T09:02:49.237Z,981.23
2023-12-14T09:03:49.083Z,981.29
2023-12-14T09:04:49.912Z,981.30
2023-12-14T09:05:49.332Z,981.29
2023-12-14T09:06:48.989Z,981.32
2023-12-14T09:07:49.065Z,981.31
2023-12-14T09:08:49.253Z,981.37
2023-12-14T09:09:48.945Z,981.37
2023-12-14T09:10:48.968Z,981.35
2023-12-14T09:11:48.928Z,981.45
2023-12-14T09:12:49.315Z,981.42
2023-12-14T09:13:49.013Z,981.43
2023-12-14T09:14:48.924Z,981.41
2023-12-14T09:15:48.893Z,981.40
2023-12-14T09:16:48.957Z,981.42
2023-12-14T09:17:48.927Z,981.46
2023-12-14T09:18:49.040Z,981.41
2023-12-14T09:19:48.882Z,981.48
2023-12-14T09:20:48.837Z,981.47
2023-12-14T09:21:48.833Z,981.57
2023-12-14T09:22:48.918Z,981.48
2023-12-14T09:23:48.831Z,981.54
2023-12-14T09:24:48.806Z,981.58
2023-12-14T09:25:49.686Z,981.59
2023-12-14T09:26:48.826Z,981.63
2023-12-14T09:27:48.751Z,981.59
2023-12-14T09:28:48.754Z,981.64
2023-12-14T09:29:48.873Z,981.68
2023-12-14T09:30:49.053Z,981.67
2023-12-14T09:31:48.921Z,981.69
2023-12-14T09:32:48.833Z,981.70
2023-12-14T09:33:48.751Z,981.77
2023-12-14T09:34:48.705Z,981.77
2023-12-14T09:35:48.673Z,981.78
2023-12-14T09:36:48.671Z,981.81
2023-12-14T09:37:48.734Z,981.87
2023-12-14T09:38:48.645Z,981.83
2023-12-14T09:39:48.635Z,981.87
2023-12-14T09:40:48.620Z,981.92
2023-12-14T09:41:48.600Z,981.91
2023-12-14T09:42:48.598Z,981.92
2023-12-14T09:43:48.635Z,981.93
2023-12-14T09:44:49.314Z,981.97
2023-12-14T09:45:48.593Z,982.00
2023-12-14T09:46:48.557Z,981.99
2023-12-14T09:47:48.692Z,982.01
2023-12-14T09:48:48.648Z,982.06
2023-12-14T09:49:48.533Z,982.04
2023-12-14T09:50:48.534Z,982.04
2023-12-14T09:51:48.485Z,982.07
2023-12-14T09:52:48.493Z,982.10
2023-12-14T09:53:48.536Z,982.08
2023-12-14T09:54:48.467Z,982.09
2023-12-14T09:55:48.475Z,982.08
2023-12-14T09:56:48.503Z,982.14
2023-12-14T09:57:48.459Z,982.13
2023-12-14T09:58:48.434Z,982.12
2023-12-14T09:59:48.388Z,982.14
2023-12-14T10:00:48.426Z,982.14
2023-12-14T10:01:48.419Z,982.18
2023-12-14T10:02:48.868Z,982.13
2023-12-14T10:03:48.365Z,982.17
2023-12-14T10:04:48.446Z,982.17
2023-12-14T10:05:48.611Z,982.22
2023-12-14T10:06:48.461Z,982.21
2023-12-14T10:07:48.450Z,982.19
2023-12-14T10:08:48.296Z,982.25
2023-12-14T10:09:48.357Z,982.24
2023-12-14T10:10:48.281Z,982.22
2023-12-14T10:11:48.252Z,982.27
2023-12-14T10:12:48.261Z,982.24
2023-12-14T10:13:48.286Z,982.24
2023-12-14T10:14:48.226Z,982.33
2023-12-14T10:15:48.216Z,982.28
2023-12-14T10:16:48.224Z,982.32
2023-12-14T10:17:48.409Z,982.31
2023-12-14T10:18:48.421Z,982.34
2023-12-14T10:19:48.406Z,982.34
2023-12-14T10:20:48.188Z,982.37
2023-12-14T10:21:48.177Z,982.38
2023-12-14T10:22:48.179Z,982.36
2023-12-14T10:23:48.149Z,982.43
2023-12-14T10:24:48.123Z,982.42
2023-12-14T10:25:48.862Z,982.42
2023-12-14T10:26:48.134Z,982.42
2023-12-14T10:27:48.149Z,982.45
2023-12-14T10:28:48.101Z,982.40
2023-12-14T10:29:48.056Z,982.46
2023-12-14T10:30:48.069Z,982.45
2023-12-14T10:31:48.077Z,982.48
2023-12-14T10:32:48.206Z,982.51
2023-12-14T10:33:48.085Z,982.57
2023-12-14T10:34:48.056Z,982.52
2023-12-14T10:35:48.131Z,982.54
2023-12-14T10:36:47.982Z,982.56
2023-12-14T10:37:48.016Z,982.58
2023-12-14T10:38:48.004Z,982.57
2023-12-14T10:39:47.957Z,982.60
2023-12-14T10:40:48.213Z,982.62
2023-12-14T10:41:54.220Z,982.65
2023-12-14T10:42:49.568Z,982.64
2023-12-14T10:43:49.964Z,982.69
2023-12-14T10:45:05.407Z,982.67
2023-12-14T10:45:48.975Z,982.69
2023-12-14T10:46:47.964Z,982.74
2023-12-14T10:47:48.993Z,982.75
2023-12-14T10:48:47.918Z,982.80
2023-12-14T10:49:47.846Z,982.78
2023-12-14T10:50:47.914Z,982.79
2023-12-14T10:51:49.266Z,982.78
2023-12-14T10:52:47.912Z,982.78
2023-12-14T10:53:47.793Z,982.80
2023-12-14T10:54:47.822Z,982.81
2023-12-14T10:55:47.816Z,982.81
2023-12-14T10:56:47.773Z,982.83
2023-12-14T10:57:49.945Z,982.78
2023-12-14T10:58:47.735Z,982.80
2023-12-14T10:59:47.718Z,982.79
2023-12-14T11:00:47.735Z,982.81
2023-12-14T11:01:47.729Z,982.84
2023-12-14T11:02:47.711Z,982.82
2023-12-14T11:03:47.700Z,982.83
2023-12-14T11:04:47.760Z,982.86
2023-12-14T11:05:47.736Z,982.84
2023-12-14T11:06:48.610Z,982.87
2023-12-14T11:07:48.510Z,982.82
2023-12-14T11:08:47.645Z,982.88
2023-12-14T11:09:47.602Z,982.86
2023-12-14T11:10:47.625Z,982.88
2023-12-14T11:11:47.635Z,982.90
2023-12-14T11:12:47.587Z,982.91
2023-12-14T11:13:47.648Z,982.91
2023-12-14T11:14:47.607Z,982.90
2023-12-14T11:15:48.320Z,982.93
2023-12-14T11:16:47.822Z,982.98
2023-12-14T11:17:47.924Z,982.97
2023-12-14T11:18:47.648Z,982.94
2023-12-14T11:19:48.815Z,982.98
2023-12-14T11:20:47.902Z,983.01
2023-12-14T11:21:47.456Z,983.01
2023-12-14T11:22:47.613Z,983.01
2023-12-14T11:23:47.467Z,982.99
2023-12-14T11:24:47.523Z,983.01
2023-12-14T11:25:49.957Z,983.00
2023-12-14T11:26:48.455Z,983.02
2023-12-14T11:27:48.139Z,983.05
2023-12-14T11:28:47.428Z,983.05
2023-12-14T11:29:47.353Z,983.05
2023-12-14T11:30:55.089Z,983.09
2023-12-14T11:31:48.416Z,983.08
2023-12-14T11:32:47.371Z,983.09
2023-12-14T11:33:47.377Z,983.08
2023-12-14T11:34:47.361Z,983.09
2023-12-14T11:35:47.295Z,983.17
2023-12-14T11:36:47.354Z,983.22
2023-12-14T11:37:47.311Z,983.21
2023-12-14T11:38:47.259Z,983.22
2023-12-14T11:39:47.268Z,983.24
2023-12-14T11:40:47.316Z,983.23
2023-12-14T11:41:47.534Z,983.25
2023-12-14T11:42:47.245Z,983.27
2023-12-14T11:43:47.293Z,983.29
2023-12-14T11:44:47.194Z,983.35
2023-12-14T11:45:47.182Z,983.34
2023-12-14T11:46:47.214Z,983.30
2023-12-14T11:47:47.348Z,983.34
2023-12-14T11:48:47.511Z,983.38
2023-12-14T11:49:47.227Z,983.41
2023-12-14T11:50:47.308Z,983.42
2023-12-14T11:51:47.168Z,983.42
2023-12-14T11:52:47.192Z,983.41
2023-12-14T11:53:47.320Z,983.45
2023-12-14T11:54:47.411Z,983.48
2023-12-14T11:55:47.228Z,983.50
2023-12-14T11:56:47.115Z,983.48
2023-12-14T11:57:47.281Z,983.53
2023-12-14T11:58:47.116Z,983.49
2023-12-14T11:59:47.224Z,983.53
2023-12-14T12:00:47.115Z,983.49
2023-12-14T12:01:47.048Z,983.49
2023-12-14T12:02:47.058Z,983.51
2023-12-14T12:03:47.149Z,983.50
2023-12-14T12:04:47.264Z,983.55
2023-12-14T12:05:47.343Z,983.56
2023-12-14T12:06:47.115Z,983.59
2023-12-14T12:07:47.018Z,983.53
2023-12-14T12:08:46.945Z,983.54
2023-12-14T12:09:46.943Z,983.57
2023-12-14T12:10:46.918Z,983.54
2023-12-14T12:11:46.913Z,983.55
2023-12-14T12:12:46.894Z,983.58
2023-12-14T12:13:46.941Z,983.57
2023-12-14T12:14:46.862Z,983.55
2023-12-14T12:15:46.838Z,983.58
2023-12-14T12:16:46.854Z,983.57
2023-12-14T12:17:46.874Z,983.57
2023-12-14T12:18:46.908Z,983.55
2023-12-14T12:19:46.818Z,983.56
2023-12-14T12:20:46.865Z,983.60
2023-12-14T12:21:46.768Z,983.63
2023-12-14T12:22:46.833Z,983.65
2023-12-14T12:23:46.837Z,983.70
2023-12-14T12:24:49.306Z,983.70
2023-12-14T12:25:47.760Z,983.66
2023-12-14T12:26:46.716Z,983.66
2023-12-14T12:27:46.733Z,983.60
2023-12-14T12:28:46.770Z,983.68